PWSweather.com
Personal Weather Stations
Station Observations
IMAZOWIE6
WarszawaPL

WarszawaPL

Lat: 52.27957, Lon: 21.05489

Elevation: 100

Station Type: WS1080

http://stacjapogody.waw.pl/

High Low Average
Temperature 32.5°F0.3°C 28.6°F-1.9°C 30.5°F-0.8°C
Dew Point -169.5°F-111.9°C -169.9°F-112.2°C -169.8°F-112.1°C
Winds 2.0 mph 3.2 kmh Calm Calm Calm NCalm N
Wind Gusts 5.4 mph8.7 kmh -- 2.0 mph3.2 kmh
Humidity - - -
Pressure 30.20 in1022.7 mb 29.85 in1010.8 mb -
Precipitation 0.00 in0.0 mm - -
Hour Temp Dew Point Humidity Winds Wind Gusts Pressure Precip Precip Rate Daily Precip Total
12:05 AM 32.5°F0.3°C -169.5°F-111.9°C - Calm Calm 2.0 mph3.2 kmh 29.86 in1011.2 mb 0.00 in0.0 mm 0.00 in0.0 mm 0.00 in0.0 mm
12:20 AM 32.5°F0.3°C -169.5°F-111.9°C - Calm Calm 1.4 mph2.3 kmh 29.86 in1011.2 mb 0.00 in0.0 mm 0.00 in0.0 mm 0.00 in0.0 mm
12:35 AM 32.5°F0.3°C -169.5°F-111.9°C - Calm Calm 0.6 mph1.0 kmh 29.85 in1010.8 mb 0.00 in0.0 mm 0.00 in0.0 mm 0.00 in0.0 mm
12:45 AM 32.5°F0.3°C -169.5°F-111.9°C - Calm Calm 0.6 mph1.0 kmh 29.85 in1010.8 mb 0.00 in0.0 mm 0.00 in0.0 mm 0.00 in0.0 mm
01:05 AM 32.5°F0.3°C -169.5°F-111.9°C - Calm Calm 4.8 mph7.7 kmh 29.87 in1011.5 mb 0.00 in0.0 mm 0.00 in0.0 mm 0.00 in0.0 mm
01:20 AM 32.5°F0.3°C -169.5°F-111.9°C - Calm Calm -- 29.87 in1011.5 mb 0.00 in0.0 mm 0.00 in0.0 mm 0.00 in0.0 mm
01:35 AM 32.5°F0.3°C -169.5°F-111.9°C - Calm Calm 0.6 mph1.0 kmh 29.87 in1011.5 mb 0.00 in0.0 mm 0.00 in0.0 mm 0.00 in0.0 mm
01:50 AM 32.4°F0.2°C -169.6°F-112.0°C - Calm Calm 0.6 mph1.0 kmh 29.88 in1011.9 mb 0.00 in0.0 mm 0.00 in0.0 mm 0.00 in0.0 mm
02:05 AM 32.4°F0.2°C -169.6°F-112.0°C - Calm Calm 0.6 mph1.0 kmh 29.88 in1011.9 mb 0.00 in0.0 mm 0.00 in0.0 mm 0.00 in0.0 mm
02:20 AM 32.4°F0.2°C -169.6°F-112.0°C - Calm Calm 1.4 mph2.3 kmh 29.88 in1011.9 mb 0.00 in0.0 mm 0.00 in0.0 mm 0.00 in0.0 mm
02:35 AM 32.5°F0.3°C -169.5°F-111.9°C - Calm Calm 2.0 mph3.2 kmh 29.89 in1012.2 mb 0.00 in0.0 mm 0.00 in0.0 mm 0.00 in0.0 mm
02:50 AM 32.4°F0.2°C -169.6°F-112.0°C - Calm Calm 1.4 mph2.3 kmh 29.89 in1012.2 mb 0.00 in0.0 mm 0.00 in0.0 mm 0.00 in0.0 mm
03:05 AM 32.4°F0.2°C -169.6°F-112.0°C - Calm Calm 0.6 mph1.0 kmh 29.90 in1012.5 mb 0.00 in0.0 mm 0.00 in0.0 mm 0.00 in0.0 mm
03:20 AM 32.4°F0.2°C -169.6°F-112.0°C - Calm Calm -- 29.91 in1012.9 mb 0.00 in0.0 mm 0.00 in0.0 mm 0.00 in0.0 mm
03:35 AM 32.2°F0.1°C -169.6°F-112.0°C - Calm Calm 1.4 mph2.3 kmh 29.91 in1012.9 mb 0.00 in0.0 mm 0.00 in0.0 mm 0.00 in0.0 mm
03:50 AM 31.8°F-0.1°C -169.6°F-112.0°C - Calm Calm -- 29.91 in1012.9 mb 0.00 in0.0 mm 0.00 in0.0 mm 0.00 in0.0 mm
04:05 AM 32.0°F0.0°C -169.6°F-112.0°C - Calm Calm 1.4 mph2.3 kmh 29.91 in1012.9 mb 0.00 in0.0 mm 0.00 in0.0 mm 0.00 in0.0 mm
04:20 AM 32.0°F0.0°C -169.6°F-112.0°C - Calm Calm 1.4 mph2.3 kmh 29.92 in1013.2 mb 0.00 in0.0 mm 0.00 in0.0 mm 0.00 in0.0 mm
04:35 AM 31.6°F-0.2°C -169.6°F-112.0°C - Calm Calm -- 29.92 in1013.2 mb 0.00 in0.0 mm 0.00 in0.0 mm 0.00 in0.0 mm
04:50 AM 31.6°F-0.2°C -169.6°F-112.0°C - Calm Calm -- 29.93 in1013.5 mb 0.00 in0.0 mm 0.00 in0.0 mm 0.00 in0.0 mm
05:05 AM 31.5°F-0.3°C -169.7°F-112.1°C - Calm Calm -- 29.93 in1013.5 mb 0.00 in0.0 mm 0.00 in0.0 mm 0.00 in0.0 mm
05:20 AM 31.3°F-0.4°C -169.7°F-112.1°C - 0.6 mph N1.0 kmh N 3.4 mph5.5 kmh 29.94 in1013.9 mb 0.00 in0.0 mm 0.00 in0.0 mm 0.00 in0.0 mm
05:35 AM 30.9°F-0.6°C -169.7°F-112.1°C - Calm Calm 0.6 mph1.0 kmh 29.95 in1014.2 mb 0.00 in0.0 mm 0.00 in0.0 mm 0.00 in0.0 mm
05:50 AM 30.6°F-0.8°C -169.7°F-112.1°C - Calm Calm 0.6 mph1.0 kmh 29.96 in1014.6 mb 0.00 in0.0 mm 0.00 in0.0 mm 0.00 in0.0 mm
06:05 AM 30.6°F-0.8°C -169.7°F-112.1°C - Calm Calm 1.4 mph2.3 kmh 29.96 in1014.6 mb 0.00 in0.0 mm 0.00 in0.0 mm 0.00 in0.0 mm
06:20 AM 30.2°F-1.0°C -169.8°F-112.1°C - Calm Calm 1.4 mph2.3 kmh 29.96 in1014.6 mb 0.00 in0.0 mm 0.00 in0.0 mm 0.00 in0.0 mm
06:35 AM 30.4°F-0.9°C -169.8°F-112.1°C - Calm Calm 1.4 mph2.3 kmh 29.96 in1014.6 mb 0.00 in0.0 mm 0.00 in0.0 mm 0.00 in0.0 mm
06:50 AM 30.4°F-0.9°C -169.8°F-112.1°C - Calm Calm 0.6 mph1.0 kmh 29.97 in1014.9 mb 0.00 in0.0 mm 0.00 in0.0 mm 0.00 in0.0 mm
07:05 AM 30.2°F-1.0°C -169.8°F-112.1°C - Calm Calm 2.0 mph3.2 kmh 29.98 in1015.2 mb 0.00 in0.0 mm 0.00 in0.0 mm 0.00 in0.0 mm
07:20 AM 30.0°F-1.1°C -169.8°F-112.1°C - 2.0 mph N3.2 kmh N 4.8 mph7.7 kmh 29.99 in1015.6 mb 0.00 in0.0 mm 0.00 in0.0 mm 0.00 in0.0 mm
07:35 AM 29.8°F-1.2°C -169.8°F-112.1°C - Calm Calm 4.8 mph7.7 kmh 29.99 in1015.6 mb 0.00 in0.0 mm 0.00 in0.0 mm 0.00 in0.0 mm
07:50 AM 29.7°F-1.3°C -169.8°F-112.1°C - 2.0 mph N3.2 kmh N 4.0 mph6.4 kmh 29.99 in1015.6 mb 0.00 in0.0 mm 0.00 in0.0 mm 0.00 in0.0 mm
08:05 AM 29.8°F-1.2°C -169.8°F-112.1°C - Calm Calm 0.6 mph1.0 kmh 30.01 in1016.3 mb 0.00 in0.0 mm 0.00 in0.0 mm 0.00 in0.0 mm
08:20 AM 29.8°F-1.2°C -169.8°F-112.1°C - Calm Calm 0.6 mph1.0 kmh 30.01 in1016.3 mb 0.00 in0.0 mm 0.00 in0.0 mm 0.00 in0.0 mm
08:35 AM 29.7°F-1.3°C -169.8°F-112.1°C - Calm Calm 0.6 mph1.0 kmh 30.02 in1016.6 mb 0.00 in0.0 mm 0.00 in0.0 mm 0.00 in0.0 mm
08:50 AM 29.5°F-1.4°C -169.9°F-112.2°C - Calm Calm 0.6 mph1.0 kmh 30.02 in1016.6 mb 0.00 in0.0 mm 0.00 in0.0 mm 0.00 in0.0 mm
09:05 AM 29.5°F-1.4°C -169.9°F-112.2°C - Calm Calm 3.4 mph5.5 kmh 30.03 in1016.9 mb 0.00 in0.0 mm 0.00 in0.0 mm 0.00 in0.0 mm
09:20 AM 29.3°F-1.5°C -169.9°F-112.2°C - Calm Calm 1.4 mph2.3 kmh 30.04 in1017.3 mb 0.00 in0.0 mm 0.00 in0.0 mm 0.00 in0.0 mm
09:35 AM 29.5°F-1.4°C -169.9°F-112.2°C - Calm Calm 1.4 mph2.3 kmh 30.04 in1017.3 mb 0.00 in0.0 mm 0.00 in0.0 mm 0.00 in0.0 mm
09:50 AM 29.1°F-1.6°C -169.9°F-112.2°C - Calm Calm 0.6 mph1.0 kmh 30.05 in1017.6 mb 0.00 in0.0 mm 0.00 in0.0 mm 0.00 in0.0 mm
10:05 AM 28.9°F-1.7°C -169.9°F-112.2°C - Calm Calm 0.6 mph1.0 kmh 30.06 in1017.9 mb 0.00 in0.0 mm 0.00 in0.0 mm 0.00 in0.0 mm
10:20 AM 28.8°F-1.8°C -169.9°F-112.2°C - Calm Calm 1.4 mph2.3 kmh 30.06 in1017.9 mb 0.00 in0.0 mm 0.00 in0.0 mm 0.00 in0.0 mm
10:35 AM 28.6°F-1.9°C -169.9°F-112.2°C - Calm Calm 2.8 mph4.5 kmh 30.06 in1017.9 mb 0.00 in0.0 mm 0.00 in0.0 mm 0.00 in0.0 mm
10:50 AM 28.8°F-1.8°C -169.9°F-112.2°C - Calm Calm 2.8 mph4.5 kmh 30.06 in1017.9 mb 0.00 in0.0 mm 0.00 in0.0 mm 0.00 in0.0 mm
11:05 AM 28.8°F-1.8°C -169.9°F-112.2°C - Calm Calm 1.4 mph2.3 kmh 30.06 in1017.9 mb 0.00 in0.0 mm 0.00 in0.0 mm 0.00 in0.0 mm
11:20 AM 28.9°F-1.7°C -169.9°F-112.2°C - Calm Calm 2.0 mph3.2 kmh 30.06 in1017.9 mb 0.00 in0.0 mm 0.00 in0.0 mm 0.00 in0.0 mm
11:35 AM 28.9°F-1.7°C -169.9°F-112.2°C - Calm Calm 1.4 mph2.3 kmh 30.07 in1018.3 mb 0.00 in0.0 mm 0.00 in0.0 mm 0.00 in0.0 mm
11:50 AM 29.1°F-1.6°C -169.9°F-112.2°C - 0.6 mph N1.0 kmh N 2.8 mph4.5 kmh 30.07 in1018.3 mb 0.00 in0.0 mm 0.00 in0.0 mm 0.00 in0.0 mm
12:05 PM 29.1°F-1.6°C -169.9°F-112.2°C - Calm Calm 2.8 mph4.5 kmh 30.07 in1018.3 mb 0.00 in0.0 mm 0.00 in0.0 mm 0.00 in0.0 mm
12:20 PM 29.3°F-1.5°C -169.9°F-112.2°C - Calm Calm 1.4 mph2.3 kmh 30.07 in1018.3 mb 0.00 in0.0 mm 0.00 in0.0 mm 0.00 in0.0 mm
12:30 PM 29.3°F-1.5°C -169.9°F-112.2°C - Calm Calm 1.4 mph2.3 kmh 30.07 in1018.3 mb 0.00 in0.0 mm 0.00 in0.0 mm 0.00 in0.0 mm
12:50 PM 29.7°F-1.3°C -169.8°F-112.1°C - Calm Calm 1.4 mph2.3 kmh 30.08 in1018.6 mb 0.00 in0.0 mm 0.00 in0.0 mm 0.00 in0.0 mm
01:05 PM 29.8°F-1.2°C -169.8°F-112.1°C - Calm Calm 1.4 mph2.3 kmh 30.08 in1018.6 mb 0.00 in0.0 mm 0.00 in0.0 mm 0.00 in0.0 mm
01:20 PM 30.0°F-1.1°C -169.8°F-112.1°C - Calm Calm 0.6 mph1.0 kmh 30.08 in1018.6 mb 0.00 in0.0 mm 0.00 in0.0 mm 0.00 in0.0 mm
01:35 PM 30.2°F-1.0°C -169.8°F-112.1°C - Calm Calm 1.4 mph2.3 kmh 30.09 in1019.0 mb 0.00 in0.0 mm 0.00 in0.0 mm 0.00 in0.0 mm
01:50 PM 30.6°F-0.8°C -169.7°F-112.1°C - Calm Calm 0.6 mph1.0 kmh 30.09 in1019.0 mb 0.00 in0.0 mm 0.00 in0.0 mm 0.00 in0.0 mm
02:00 PM 30.6°F-0.8°C -169.7°F-112.1°C - Calm Calm 0.6 mph1.0 kmh 30.09 in1019.0 mb 0.00 in0.0 mm 0.00 in0.0 mm 0.00 in0.0 mm
02:20 PM 30.2°F-1.0°C -169.8°F-112.1°C - Calm Calm 3.4 mph5.5 kmh 30.09 in1019.0 mb 0.00 in0.0 mm 0.00 in0.0 mm 0.00 in0.0 mm
02:31 PM 30.2°F-1.0°C -169.8°F-112.1°C - Calm Calm 3.4 mph5.5 kmh 30.09 in1019.0 mb 0.00 in0.0 mm 0.00 in0.0 mm 0.00 in0.0 mm
02:46 PM 30.2°F-1.0°C -169.8°F-112.1°C - Calm Calm 3.4 mph5.5 kmh 30.09 in1019.0 mb 0.00 in0.0 mm 0.00 in0.0 mm 0.00 in0.0 mm
03:05 PM 30.4°F-0.9°C -169.8°F-112.1°C - Calm Calm 2.0 mph3.2 kmh 30.11 in1019.6 mb 0.00 in0.0 mm 0.00 in0.0 mm 0.00 in0.0 mm
03:20 PM 30.2°F-1.0°C -169.8°F-112.1°C - Calm Calm 1.4 mph2.3 kmh 30.11 in1019.6 mb 0.00 in0.0 mm 0.00 in0.0 mm 0.00 in0.0 mm
03:35 PM 30.2°F-1.0°C -169.8°F-112.1°C - Calm Calm 3.4 mph5.5 kmh 30.11 in1019.6 mb 0.00 in0.0 mm 0.00 in0.0 mm 0.00 in0.0 mm
03:50 PM 30.0°F-1.1°C -169.8°F-112.1°C - Calm Calm -- 30.12 in1020.0 mb 0.00 in0.0 mm 0.00 in0.0 mm 0.00 in0.0 mm
04:05 PM 30.4°F-0.9°C -169.8°F-112.1°C - 0.6 mph N1.0 kmh N 4.0 mph6.4 kmh 30.12 in1020.0 mb 0.00 in0.0 mm 0.00 in0.0 mm 0.00 in0.0 mm
04:20 PM 30.4°F-0.9°C -169.8°F-112.1°C - Calm Calm 0.6 mph1.0 kmh 30.13 in1020.3 mb 0.00 in0.0 mm 0.00 in0.0 mm 0.00 in0.0 mm
04:30 PM 30.4°F-0.9°C -169.8°F-112.1°C - Calm Calm 0.6 mph1.0 kmh 30.13 in1020.3 mb 0.00 in0.0 mm 0.00 in0.0 mm 0.00 in0.0 mm
04:45 PM 30.4°F-0.9°C -169.8°F-112.1°C - Calm Calm 0.6 mph1.0 kmh 30.13 in1020.3 mb 0.00 in0.0 mm 0.00 in0.0 mm 0.00 in0.0 mm
05:05 PM 30.4°F-0.9°C -169.8°F-112.1°C - Calm Calm 5.4 mph8.7 kmh 30.13 in1020.3 mb 0.00 in0.0 mm 0.00 in0.0 mm 0.00 in0.0 mm
05:20 PM 30.4°F-0.9°C -169.8°F-112.1°C - Calm Calm 0.6 mph1.0 kmh 30.13 in1020.3 mb 0.00 in0.0 mm 0.00 in0.0 mm 0.00 in0.0 mm
05:31 PM 30.4°F-0.9°C -169.8°F-112.1°C - Calm Calm 0.6 mph1.0 kmh 30.13 in1020.3 mb 0.00 in0.0 mm 0.00 in0.0 mm 0.00 in0.0 mm
05:50 PM 30.4°F-0.9°C -169.8°F-112.1°C - Calm Calm 0.6 mph1.0 kmh 30.13 in1020.3 mb 0.00 in0.0 mm 0.00 in0.0 mm 0.00 in0.0 mm
06:05 PM 30.4°F-0.9°C -169.8°F-112.1°C - Calm Calm 0.6 mph1.0 kmh 30.15 in1021.0 mb 0.00 in0.0 mm 0.00 in0.0 mm 0.00 in0.0 mm
06:20 PM 30.4°F-0.9°C -169.8°F-112.1°C - Calm Calm 2.8 mph4.5 kmh 30.15 in1021.0 mb 0.00 in0.0 mm 0.00 in0.0 mm 0.00 in0.0 mm
06:35 PM 30.6°F-0.8°C -169.7°F-112.1°C - Calm Calm 2.0 mph3.2 kmh 30.15 in1021.0 mb 0.00 in0.0 mm 0.00 in0.0 mm 0.00 in0.0 mm
06:50 PM 30.6°F-0.8°C -169.7°F-112.1°C - Calm Calm 2.0 mph3.2 kmh 30.15 in1021.0 mb 0.00 in0.0 mm 0.00 in0.0 mm 0.00 in0.0 mm
07:05 PM 30.6°F-0.8°C -169.7°F-112.1°C - Calm Calm 2.0 mph3.2 kmh 30.15 in1021.0 mb 0.00 in0.0 mm 0.00 in0.0 mm 0.00 in0.0 mm
07:20 PM 30.6°F-0.8°C -169.7°F-112.1°C - Calm Calm 2.0 mph3.2 kmh 30.15 in1021.0 mb 0.00 in0.0 mm 0.00 in0.0 mm 0.00 in0.0 mm
07:35 PM 30.6°F-0.8°C -169.7°F-112.1°C - Calm Calm 2.0 mph3.2 kmh 30.15 in1021.0 mb 0.00 in0.0 mm 0.00 in0.0 mm 0.00 in0.0 mm
07:50 PM 30.2°F-1.0°C -169.8°F-112.1°C - 0.6 mph N1.0 kmh N 5.4 mph8.7 kmh 30.17 in1021.7 mb 0.00 in0.0 mm 0.00 in0.0 mm 0.00 in0.0 mm
08:05 PM 30.4°F-0.9°C -169.8°F-112.1°C - 0.6 mph N1.0 kmh N 5.4 mph8.7 kmh 30.18 in1022.0 mb 0.00 in0.0 mm 0.00 in0.0 mm 0.00 in0.0 mm
08:20 PM 30.0°F-1.1°C -169.8°F-112.1°C - 0.6 mph N1.0 kmh N 5.4 mph8.7 kmh 30.18 in1022.0 mb 0.00 in0.0 mm 0.00 in0.0 mm 0.00 in0.0 mm
08:35 PM 30.4°F-0.9°C -169.8°F-112.1°C - 0.6 mph N1.0 kmh N 3.4 mph5.5 kmh 30.18 in1022.0 mb 0.00 in0.0 mm 0.00 in0.0 mm 0.00 in0.0 mm
08:50 PM 30.0°F-1.1°C -169.8°F-112.1°C - 0.6 mph N1.0 kmh N 5.4 mph8.7 kmh 30.18 in1022.0 mb 0.00 in0.0 mm 0.00 in0.0 mm 0.00 in0.0 mm
09:01 PM 30.0°F-1.1°C -169.8°F-112.1°C - 0.6 mph N1.0 kmh N 5.4 mph8.7 kmh 30.18 in1022.0 mb 0.00 in0.0 mm 0.00 in0.0 mm 0.00 in0.0 mm
09:20 PM 30.2°F-1.0°C -169.8°F-112.1°C - 0.6 mph N1.0 kmh N 4.8 mph7.7 kmh 30.18 in1022.0 mb 0.00 in0.0 mm 0.00 in0.0 mm 0.00 in0.0 mm
09:35 PM 30.0°F-1.1°C -169.8°F-112.1°C - Calm Calm 2.0 mph3.2 kmh 30.19 in1022.4 mb 0.00 in0.0 mm 0.00 in0.0 mm 0.00 in0.0 mm
09:50 PM 30.2°F-1.0°C -169.8°F-112.1°C - Calm Calm 1.4 mph2.3 kmh 30.18 in1022.0 mb 0.00 in0.0 mm 0.00 in0.0 mm 0.00 in0.0 mm
10:05 PM 30.2°F-1.0°C -169.8°F-112.1°C - Calm Calm 4.0 mph6.4 kmh 30.19 in1022.4 mb 0.00 in0.0 mm 0.00 in0.0 mm 0.00 in0.0 mm
10:20 PM 30.4°F-0.9°C -169.8°F-112.1°C - 0.6 mph N1.0 kmh N 4.8 mph7.7 kmh 30.19 in1022.4 mb 0.00 in0.0 mm 0.00 in0.0 mm 0.00 in0.0 mm
10:30 PM 30.4°F-0.9°C -169.8°F-112.1°C - 0.6 mph N1.0 kmh N 4.8 mph7.7 kmh 30.19 in1022.4 mb 0.00 in0.0 mm 0.00 in0.0 mm 0.00 in0.0 mm
10:50 PM 30.2°F-1.0°C -169.8°F-112.1°C - Calm Calm 1.4 mph2.3 kmh 30.19 in1022.4 mb 0.00 in0.0 mm 0.00 in0.0 mm 0.00 in0.0 mm
11:05 PM 30.2°F-1.0°C -169.8°F-112.1°C - Calm Calm 0.6 mph1.0 kmh 30.19 in1022.4 mb 0.00 in0.0 mm 0.00 in0.0 mm 0.00 in0.0 mm
11:20 PM 30.0°F-1.1°C -169.8°F-112.1°C - Calm Calm 0.6 mph1.0 kmh 30.20 in1022.7 mb 0.00 in0.0 mm 0.00 in0.0 mm 0.00 in0.0 mm
11:35 PM 30.0°F-1.1°C -169.8°F-112.1°C - Calm Calm 1.4 mph2.3 kmh 30.20 in1022.7 mb 0.00 in0.0 mm 0.00 in0.0 mm 0.00 in0.0 mm
11:50 PM 30.0°F-1.1°C -169.8°F-112.1°C - Calm Calm -- 30.20 in1022.7 mb 0.00 in0.0 mm 0.00 in0.0 mm 0.00 in0.0 mm